Latest Weather Observations for Alva Beach

IDQ60801

Issued at 8:42 am EST Wednesday 14 November 2018 (issued every 10 minutes, with the page automatically refreshed every 10 minutes)

About weather observations | Map of weather stations | Latest weather observations for QLD | Other Formats
Station Details ID: 033295 Name: ALVA BEACH Lat: -19.46 Lon: 147.48 Height: 7.5 m
Data from the previous 72 hours. | See also: Recent months at Alva Beach
Date/Time
EST
Temp
°C
App
Temp
°C
Dew
Point
°C
Rel
Hum
%
Delta-T
°C
Wind Press
QNH
hPa
Press
MSL
hPa
Rain since
9am
mm
Dir  Spd
km/h
Gust
km/h
Spd
kts
Gust
kts
14/08:30am 26.8 25.6 17.6 57 5.8 E 20 30 11 16 1015.3 1015.3 0.0
14/08:00am 26.4 25.8 18.8 63 4.9 ENE 20 28 11 15 1015.4 1015.4 0.0
14/07:30am 26.2 24.6 19.3 65 4.4 ENE 26 30 14 16 1015.2 1015.2 0.0
14/07:00am 25.2 24.3 19.1 69 3.9 ENE 22 32 12 17 1015.0 1015.0 0.0
14/06:30am 24.8 24.5 19.6 73 3.3 ENE 20 24 11 13 1014.7 1014.7 0.0
14/06:00am 24.7 23.8 19.8 74 3.2 ENE 24 32 13 17 1014.3 1014.3 0.0
14/05:30am 25.1 23.8 18.1 65 4.4 E 22 30 12 16 1013.8 1013.8 0.0
14/05:00am 25.2 24.2 18.9 68 4.0 E 22 30 12 16 1013.5 1013.5 0.0
14/04:30am 25.1 23.9 18.3 66 4.3 E 22 28 12 15 1013.0 1013.0 0.0
14/04:00am 24.8 23.8 18.0 66 4.3 E 20 28 11 15 1012.6 1012.6 0.0
14/03:30am 24.8 24.1 18.3 67 4.1 E 19 28 10 15 1012.6 1012.6 0.0
14/03:00am 25.1 24.6 19.0 69 3.9 E 20 30 11 16 1012.4 1012.4 0.0
14/02:30am 24.9 24.1 18.4 67 4.1 E 20 30 11 16 1012.4 1012.4 0.0
14/02:00am 24.8 23.4 18.0 66 4.3 E 22 32 12 17 1012.4 1012.4 0.0
14/01:30am 25.2 23.7 18.6 67 4.2 E 24 32 13 17 1012.6 1012.6 0.0
14/01:00am 25.0 23.4 18.4 66 4.2 E 24 33 13 18 1012.7 1012.7 0.0
14/12:30am 25.0 23.3 18.0 65 4.4 E 24 35 13 19 1013.0 1013.0 0.0
14/12:00am 25.2 23.9 19.1 69 3.9 E 24 35 13 19 1013.3 1013.3 0.0
 
Date/Time
EST
Temp
°C
App
Temp
°C
Dew
Point
°C
Rel
Hum
%
Delta-T
°C
Wind Press
QNH
hPa
Press
MSL
hPa
Rain since
9am
mm
Dir  Spd
km/h
Gust
km/h
Spd
kts
Gust
kts
13/11:30pm 25.3 22.9 18.2 64 4.5 E 28 39 15 21 1013.6 1013.6 0.0
13/11:00pm 25.3 23.8 18.5 66 4.3 E 24 35 13 19 1013.9 1013.9 0.0
13/10:30pm 25.4 23.8 19.3 69 3.9 E 26 35 14 19 1013.9 1013.9 0.0
13/10:00pm 25.3 23.6 19.0 68 4.0 E 26 35 14 19 1014.0 1014.0 0.0
13/09:30pm 25.4 23.1 17.6 62 4.9 E 26 39 14 21 1013.8 1013.8 0.0
13/09:00pm 25.6 23.4 19.5 69 3.9 E 30 41 16 22 1013.5 1013.5 0.0
13/08:30pm 25.5 22.6 19.2 68 4.0 E 33 46 18 25 1013.1 1013.1 0.0
13/08:00pm 25.6 22.0 18.5 65 4.5 E 35 46 19 25 1012.9 1012.9 0.0
13/07:30pm 25.6 22.7 19.3 68 4.0 ENE 33 44 18 24 1012.7 1012.7 0.0
13/07:00pm 25.8 23.2 19.9 70 3.8 ENE 33 44 18 24 1012.4 1012.4 0.0
13/06:30pm 25.9 23.1 19.5 68 4.1 ENE 33 43 18 23 1012.2 1012.2 0.0
13/06:00pm 26.0 22.1 19.6 68 4.1 ENE 39 48 21 26 1011.8 1011.8 0.0
13/05:30pm 26.3 21.6 19.4 66 4.5 ENE 43 50 23 27 1011.3 1011.3 0.0
13/05:00pm 26.6 22.9 19.2 64 4.8 ENE 37 46 20 25 1011.2 1011.2 0.0
13/04:30pm 26.9 23.3 18.5 60 5.4 ENE 35 44 19 24 1011.1 1011.1 0.0
13/04:00pm 27.1 23.6 18.7 60 5.4 ENE 35 43 19 23 1011.1 1011.1 0.0
13/03:30pm 27.3 24.5 18.3 58 5.7 ENE 30 39 16 21 1011.2 1011.2 0.0
13/03:00pm 27.6 24.2 17.7 54 6.3 ENE 32 37 17 20 1011.3 1011.3 0.0
13/02:30pm 27.6 24.5 18.3 57 5.9 ENE 32 39 17 21 1011.5 1011.5 0.0
13/02:00pm 27.4 24.8 17.8 55 6.1 ENE 28 37 15 20 1011.8 1011.8 0.0
13/01:30pm 27.7 26.0 18.1 56 6.1 E 24 37 13 20 1012.3 1012.3 0.0
13/01:00pm 27.3 25.1 16.9 53 6.5 E 24 35 13 19 1012.9 1012.9 0.0
13/12:30pm 27.7 25.9 16.9 51 6.7 E 22 30 12 16 1013.7 1013.7 0.0
13/12:00pm 27.5 26.0 16.8 52 6.7 E 20 30 11 16 1014.1 1014.1 0.0
13/11:30am 27.2 26.3 16.8 53 6.5 E 17 24 9 13 1014.3 1014.3 0.0
13/11:00am 27.9 26.9 16.5 50 7.1 ESE 17 30 9 16 1014.8 1014.8 0.0
13/10:30am 29.0 28.0 17.5 49 7.3 ESE 19 32 10 17 1015.2 1015.2 0.0
13/10:00am 28.4 27.1 16.7 49 7.3 ESE 19 30 10 16 1015.2 1015.2 0.0
13/09:30am 28.3 28.1 17.5 52 6.8 E 15 24 8 13 1015.6 1015.6 0.0
13/09:00am 27.9 26.7 17.1 51 6.8 E 19 28 10 15 1015.5 1015.5 0.0
13/08:30am 27.5 26.4 17.7 55 6.2 ESE 20 32 11 17 1015.4 1015.4 0.0
13/08:00am 26.5 24.4 16.1 52 6.4 E 22 30 12 16 1015.3 1015.3 0.0
13/07:30am 26.0 23.5 15.1 51 6.6 E 22 32 12 17 1015.2 1015.2 0.0
13/07:00am 25.8 23.3 15.2 52 6.4 E 22 32 12 17 1015.0 1015.0 0.0
13/06:30am 25.1 22.8 15.7 56 5.7 E 22 32 12 17 1014.8 1014.8 0.0
13/06:00am 24.6 21.9 15.5 57 5.5 E 24 39 13 21 1014.5 1014.5 0.0
13/05:30am 24.2 21.8 15.4 58 5.3 ESE 22 37 12 20 1014.2 1014.2 0.0
13/05:00am 24.0 22.1 15.8 60 5.0 ESE 20 32 11 17 1014.0 1014.0 0.0
13/04:30am 24.3 22.7 16.6 62 4.7 ESE 20 32 11 17 1013.8 1013.8 0.0
13/04:00am 24.2 22.1 16.2 61 4.9 E 22 32 12 17 1013.6 1013.6 0.0
13/03:30am 24.7 22.5 15.9 58 5.3 E 22 33 12 18 1013.5 1013.5 0.0
13/03:00am 24.6 22.5 16.1 59 5.2 E 22 32 12 17 1013.4 1013.4 0.0
13/02:30am 24.3 22.5 16.0 60 5.0 E 20 30 11 16 1013.5 1013.5 0.0
13/02:00am 24.7 23.0 17.2 63 4.7 E 22 39 12 21 1013.7 1013.7 0.0
13/01:30am 24.5 22.6 16.7 61 4.8 E 22 32 12 17 1013.7 1013.7 0.0
13/01:00am 24.8 22.1 16.5 60 5.1 E 26 37 14 20 1014.0 1014.0 0.0
13/12:30am 24.8 22.6 16.8 61 4.9 E 24 35 13 19 1014.3 1014.3 0.0
13/12:00am 24.8 22.8 17.3 63 4.7 E 24 32 13 17 1014.5 1014.5 0.0
 
Date/Time
EST
Temp
°C
App
Temp
°C
Dew
Point
°C
Rel
Hum
%
Delta-T
°C
Wind Press
QNH
hPa
Press
MSL
hPa
Rain since
9am
mm
Dir  Spd
km/h
Gust
km/h
Spd
kts
Gust
kts
12/11:30pm 24.9 22.3 16.9 61 4.9 E 26 37 14 20 1014.7 1014.7 0.0
12/11:00pm 24.8 22.4 16.5 60 5.1 E 24 35 13 19 1015.2 1015.2 0.0
12/10:30pm 25.0 23.0 17.5 63 4.7 E 24 39 13 21 1015.3 1015.3 0.0
12/10:00pm 24.9 22.4 17.1 62 4.8 E 26 41 14 22 1015.3 1015.3 0.0
12/09:30pm 25.1 22.3 18.1 65 4.4 E 30 39 16 21 1015.1 1015.1 0.0
12/09:00pm 25.1 22.0 17.6 63 4.7 E 30 39 16 21 1014.8 1014.8 0.0
12/08:30pm 25.2 21.5 17.4 62 4.9 E 33 46 18 25 1014.7 1014.7 0.0
12/08:00pm 25.3 21.7 17.7 62 4.8 E 33 44 18 24 1014.5 1014.5 0.0
12/07:30pm 25.6 22.7 18.8 66 4.3 E 32 44 17 24 1014.1 1014.1 0.0
12/07:00pm 25.6 22.5 18.5 65 4.5 E 32 41 17 22 1013.8 1013.8 0.0
12/06:30pm 25.7 21.8 17.9 62 4.9 E 35 46 19 25 1013.6 1013.6 0.0
12/06:00pm 25.9 22.2 17.5 59 5.3 E 33 44 18 24 1013.2 1013.2 0.0
12/05:30pm 26.2 21.1 17.6 59 5.4 ENE 41 52 22 28 1012.9 1012.9 0.0
12/05:00pm 26.3 22.2 17.4 58 5.6 E 35 48 19 26 1012.5 1012.5 0.0
12/04:30pm 26.6 22.8 18.2 60 5.3 E 35 44 19 24 1012.4 1012.4 0.0
12/04:00pm 26.9 22.9 16.8 54 6.3 E 33 46 18 25 1012.4 1012.4 0.0
12/03:30pm 26.8 22.7 17.3 56 5.9 ENE 35 46 19 25 1012.4 1012.4 0.0
12/03:00pm 26.9 23.2 17.4 56 6.0 E 33 43 18 23 1012.7 1012.7 0.0
12/02:30pm 27.0 23.9 18.3 59 5.5 E 32 43 17 23 1013.1 1013.1 0.0
12/02:00pm 27.1 24.0 18.9 61 5.3 E 33 44 18 24 1013.4 1013.4 0.0
12/01:30pm 27.1 23.7 17.8 56 5.9 E 32 43 17 23 1013.8 1013.8 0.0
12/01:00pm 27.7 24.5 18.1 56 6.1 E 32 39 17 21 1014.1 1014.1 0.0
12/12:30pm 27.1 24.8 18.4 59 5.5 E 28 35 15 19 1014.7 1014.7 0.0
12/12:00pm 27.5 25.6 18.5 58 5.7 E 26 37 14 20 1015.2 1015.2 0.0
12/11:30am 28.0 25.9 18.1 55 6.3 E 26 37 14 20 1015.7 1015.7 0.0
12/11:00am 27.8 25.1 16.7 50 6.9 E 26 39 14 21 1015.9 1015.9 0.0
12/10:30am 29.3 27.9 18.7 52 6.8 E 24 37 13 20 1016.2 1016.2 0.0
12/10:00am 28.1 26.2 18.5 56 6.1 E 26 39 14 21 1016.1 1016.1 0.0
12/09:30am 27.6 25.5 18.0 55 6.1 E 26 37 14 20 1016.2 1016.2 0.0
12/09:00am 27.5 26.2 19.0 59 5.5 E 24 35 13 19 1016.0 1016.0 2.6
12/08:30am 26.9 24.6 18.5 60 5.4 E 28 39 15 21 1016.0 1016.0 2.6
12/08:00am 26.7 25.2 18.6 61 5.2 E 24 35 13 19 1015.7 1015.7 2.6
12/07:30am 26.0 24.6 18.9 65 4.5 E 24 33 13 18 1015.6 1015.6 2.6
12/07:00am 24.9 24.1 19.3 71 3.6 E 22 33 12 18 1015.3 1015.3 2.6
12/06:30am 23.6 25.2 21.5 88 1.4 ESE 15 24 8 13 1015.0 1015.0 2.6
12/06:00am 21.9 24.2 19.8 88 1.3 SSW 7 19 4 10 1014.6 1014.6 2.6
12/05:30am 22.6 23.3 18.8 79 2.4 SE 13 32 7 17 1014.4 1014.4 2.0
12/05:00am 23.7 24.1 17.2 67 4.0 S 11 19 6 10 1014.1 1014.1 0.0
12/04:30am 25.0 23.0 18.4 66 4.2 E 26 35 14 19 1013.8 1013.8 0.0
12/04:00am 24.9 24.4 18.6 68 4.0 ESE 19 28 10 15 1013.7 1013.7 0.0
12/03:30am 24.8 23.3 17.8 65 4.4 E 22 32 12 17 1013.5 1013.5 0.0
12/03:00am 24.8 23.0 17.8 65 4.4 E 24 35 13 19 1013.4 1013.4 0.0
12/02:30am 24.9 23.2 18.1 66 4.3 E 24 33 13 18 1013.3 1013.3 0.0
12/02:00am 24.9 23.2 18.1 66 4.3 E 24 35 13 19 1013.5 1013.5 0.0
12/01:30am 25.1 23.6 18.5 67 4.2 E 24 35 13 19 1013.8 1013.8 0.0
12/01:00am 25.0 22.5 18.0 65 4.4 E 28 37 15 20 1014.1 1014.1 0.0
12/12:30am 25.2 23.2 18.4 66 4.3 E 26 39 14 21 1014.5 1014.5 0.0
12/12:00am 25.4 23.5 19.3 69 3.9 E 28 43 15 23 1014.9 1014.9 0.0
 
Date/Time
EST
Temp
°C
App
Temp
°C
Dew
Point
°C
Rel
Hum
%
Delta-T
°C
Wind Press
QNH
hPa
Press
MSL
hPa
Rain since
9am
mm
Dir  Spd
km/h
Gust
km/h
Spd
kts
Gust
kts
11/11:30pm 25.4 23.8 19.1 68 4.0 E 26 41 14 22 1015.1 1015.1 0.0
11/11:00pm 25.3 22.7 18.7 67 4.2 E 30 41 16 22 1015.4 1015.4 0.0
11/10:30pm 25.2 22.9 18.4 66 4.3 E 28 39 15 21 1015.6 1015.6 0.0
11/10:00pm 25.5 23.6 19.4 69 3.9 E 28 41 15 22 1015.5 1015.5 0.0
11/09:30pm 25.7 22.7 19.1 67 4.2 E 33 44 18 24 1015.1 1015.1 0.0
11/09:00pm 25.6 22.8 19.0 67 4.2 E 32 44 17 24 1014.6 1014.6 0.0
11/08:30pm 25.6 22.7 18.8 66 4.3 E 32 46 17 25 1014.2 1014.2 0.0
11/08:00pm 25.7 23.1 18.6 65 4.5 E 30 44 16 24 1013.8 1013.8 0.0
11/07:30pm 25.7 22.6 18.4 64 4.6 E 32 44 17 24 1013.5 1013.5 0.0
11/07:00pm 25.9 22.8 18.3 63 4.8 E 32 43 17 23 1013.2 1013.2 0.0
11/06:30pm 25.9 22.5 18.1 62 4.9 E 33 44 18 24 1012.7 1012.7 0.0
11/06:00pm 25.7 22.3 17.6 61 5.1 E 32 41 17 22 1012.2 1012.2 0.0
11/05:30pm 26.1 22.8 18.0 61 5.1 E 32 41 17 22 1011.8 1011.8 0.0
11/05:00pm 26.4 21.8 17.2 57 5.7 ENE 37 46 20 25 1011.4 1011.4 0.0
11/04:30pm 26.8 23.0 17.3 56 5.9 E 33 43 18 23 1011.3 1011.3 0.0
11/04:00pm 27.5 23.8 17.4 54 6.4 ENE 33 43 18 23 1011.2 1011.2 0.0
11/03:30pm 27.2 23.3 16.5 52 6.6 E 32 44 17 24 1011.2 1011.2 0.0
11/03:00pm 27.4 24.0 18.1 57 5.9 ENE 33 41 18 22 1011.3 1011.3 0.0
11/02:30pm 27.3 24.5 18.3 58 5.7 E 30 41 16 22 1011.6 1011.6 0.0
11/02:00pm 27.7 24.9 18.1 56 6.1 ENE 30 39 16 21 1011.8 1011.8 0.0
11/01:30pm 27.1 24.5 17.8 56 5.9 E 28 39 15 21 1012.0 1012.0 0.0
11/01:00pm 27.0 23.7 16.9 54 6.3 E 30 41 16 22 1012.6 1012.6 0.0
11/12:30pm 26.8 23.9 17.0 55 6.1 E 28 39 15 21 1013.1 1013.1 0.0
11/12:00pm 27.2 23.8 15.9 50 6.9 E 28 37 15 20 1013.5 1013.5 0.0
11/11:30am 28.7 25.7 15.9 45 7.9 ESE 26 39 14 21 1014.0 1014.0 0.0
11/11:00am 28.4 25.8 17.9 53 6.7 ESE 28 39 15 21 1014.2 1014.2 0.0
11/10:30am 28.4 26.4 17.3 51 7.0 ESE 24 35 13 19 1014.3 1014.3 0.0
11/10:00am 29.0 28.1 18.1 51 7.0 ESE 20 32 11 17 1014.4 1014.4 0.0
11/09:30am 26.7 25.6 17.8 58 5.6 ESE 20 32 11 17 1014.8 1014.8 0.0
11/09:00am 26.4 25.3 17.7 58 5.5 SE 20 30 11 16 1014.7 1014.7 0.0

Other Formats:

Comma delimited format used in spreadsheet applications
http://www.bom.gov.au/fwo/IDQ60801/IDQ60801.95296.axf

JavaScript Object Notation format (JSON) in row-major order
http://www.bom.gov.au/fwo/IDQ60801/IDQ60801.95296.json